TFM - Tactical Decision Aid (Experimental) INFO Settings
ID: Runway Winds: CIG/VIS Threshold: METAR Board: Map:

KATL - Atlanta-Hartsfield Jackson Intl

Updated at: 1555 UTC 23 Apr 2017
Latest TAF at: 1553 UTC 23 Apr 2017

TAF Board

Time1552Z23/16Z23/17Z23/18Z23/19Z23/20Z23/21Z23/22Z23/23Z24/00Z24/01Z24/02Z24/03Z24/04Z
TypeOBSPRVL
  [TEMP]  
PRVL
  [TEMP]  
PRVL
  [TEMP]  
PRVL
  [TEMP]  
PRVLPRVLPRVLPRVLPRVLPRVLPRVLPRVLPRVL
VIS45
  [3]  
5
  [3]  
5
  [3]  
5
  [3]  
555>6>6>6>655
CIG69
  [9]  
9
  [9]  
9
  [9]  
9
  [9]  
1212121212121288
CoverOVCOVC
  [OVC]  
OVC
  [OVC]  
OVC
  [OVC]  
OVC
  [OVC]  
BKNBKNBKNBKNBKNBKNBKNOVCOVC
FltCatIFRIFR
  [IFR]  
IFR
  [IFR]  
IFR
  [IFR]  
IFR
  [IFR]  
MVFRMVFRMVFRMVFRMVFRMVFRMVFRIFRIFR
WX-RA BR-RA BR
  [SHRA]  
-RA BR
  [SHRA]  
-RA BR
  [SHRA]  
-RA BR
  [SHRA]  
-SHRA BR-SHRA BR-SHRA BRVCSHVCSHVCSHVCSH-DZ BR-DZ BR
WDir140120
[120]
120
[120]
120
[120]
120
[120]
210210210270270270270290290
WSpd58
  [8]  
8
  [8]  
8
  [8]  
8
  [8]  
888777777
WGst----
  [--]  
--
  [--]  
--
  [--]  
--
  [--]  
------------------
TAF
KATL 231553Z 2316/2418 12008KT 5SM -RA BR BKN009 OVC012
  TEMPO 2316/2320 3SM SHRA
  FM232000 21008KT 5SM -SHRA BR BKN012
  FM232300 27007KT P6SM VCSH BKN012
  FM240300 29007KT 5SM -DZ BR OVC008
  FM241500 31008KT P6SM OVC012


METAR
KATL 231552Z 14005KT 4SM -RA BR BKN006 BKN049 OVC090 18/17 A2982 RMK AO2 SLP091 P0006 T01780167
KATL 231527Z 12009KT 3SM -RA BR BKN009 OVC046 17/17 A2982 RMK AO2 SFC VIS 4 P0002 T01720167
KATL 231452Z 14009KT 7SM -RA BKN009 OVC027 18/16 A2985 RMK AO2 RAB49 SLP100 P0000 60001 T01780156 53001

TAF/METAR Board Legend

Potential Impact
  None Marginal Slight Moderate High
Visibility (sm) >5 3≤X≤5 1≤X<3 0.5≤X<1 <0.5
Ceiling (100 ft) >30 10≤X≤30 4≤X<10 2≤X<4 <2
Wind Speed (kt) <10 10≤X<20 20≤X<30 ≥30
Wind Gust (kt) <15 15≤X<25 25≤X<35 ≥35
Weather No Wx Reported VCTS -TS,-FZRA TS,FZRA +TS,+FZRA



Page loaded:  15:55 UTC  |   08:55 AM Pacific  |   09:55 AM Mountain  |   10:55 AM Central  |   11:55 AM Eastern

 

ADVISORIES

FORECASTS

FORECASTS

OBSERVATIONS

USER TOOLS

ABOUT US